Time;durP1;ratioP1;P1;durP2;ratioP2;P2;SDS_P1;SDS_P2;PMS_P1;PMS_P2;Temp;Humidity;BMP_temperature;BMP_pressure;BME280_temperature;BME280_humidity;BME280_pressure;Samples;Min_cycle;Max_cycle;Signal;HPM_P1;HPM_P2
2023/07/06 00:00:41;;;;;;;8.80;7.20;;;;;;;21.36;96.43;98124.56;105616;1259;61240;-86
2023/07/06 00:03:09;;;;;;;7.90;6.20;;;;;;;21.34;96.73;98122.23;105689;1256;61053;-86
2023/07/06 00:05:36;;;;;;;7.40;6.70;;;;;;;21.33;96.74;98122.71;105698;1258;73807;-87
2023/07/06 00:08:03;;;;;;;7.20;6.60;;;;;;;21.32;96.77;98124.15;105741;1253;74645;-86
2023/07/06 00:10:35;;;;;;;7.40;6.70;;;;;;;21.29;96.51;98127.36;106560;1253;72780;-85
2023/07/06 00:13:02;;;;;;;8.90;6.90;;;;;;;21.27;96.58;98135.93;106191;1253;61923;-87
2023/07/06 00:15:33;;;;;;;8.60;7.50;;;;;;;21.25;97.04;98134.55;105651;1253;61609;-86
2023/07/06 00:18:03;;;;;;;9.20;8.00;;;;;;;21.23;97.15;98135.89;105663;1253;72923;-88
2023/07/06 00:20:38;;;;;;;9.00;8.20;;;;;;;21.20;97.20;98141.00;105889;1253;74928;-85
2023/07/06 00:23:05;;;;;;;9.10;8.20;;;;;;;21.17;97.41;98151.36;105650;1253;72644;-86
2023/07/06 00:25:33;;;;;;;8.50;7.70;;;;;;;21.13;97.53;98150.53;105584;1258;61177;-85
2023/07/06 00:28:08;;;;;;;7.30;6.70;;;;;;;21.09;97.63;98155.13;105623;1258;61814;-87
2023/07/06 00:33:12;;;;;;;8.90;8.00;;;;;;;21.02;97.74;98163.88;105847;1253;74486;-89
2023/07/06 00:35:43;;;;;;;9.30;8.40;;;;;;;20.97;97.95;98165.70;105874;1258;72569;-85
2023/07/06 00:38:17;;;;;;;9.00;8.20;;;;;;;20.93;98.34;98159.35;105826;1253;63843;-87
2023/07/06 00:40:47;;;;;;;9.50;7.70;;;;;;;20.91;98.62;98160.41;105706;1258;61174;-85
2023/07/06 00:43:23;;;;;;;8.90;7.80;;;;;;;20.87;98.87;98155.24;106307;1253;73084;-84
2023/07/06 00:45:53;;;;;;;8.10;7.30;;;;;;;20.83;99.13;98159.70;109423;1253;74311;-84
2023/07/06 00:48:26;;;;;;;7.80;7.10;;;;;;;20.79;98.89;98149.59;108299;1253;71430;-85
2023/07/06 00:51:04;;;;;;;8.50;7.70;;;;;;;20.75;98.71;98141.12;106092;1253;61147;-86
2023/07/06 00:53:35;;;;;;;9.00;7.40;;;;;;;20.70;98.17;98138.91;106164;1253;61158;-88
2023/07/06 00:56:03;;;;;;;8.70;7.80;;;;;;;20.67;97.70;98136.58;105710;1258;71797;-85
2023/07/06 00:58:35;;;;;;;7.80;7.00;;;;;;;20.64;97.43;98130.00;106124;1253;74018;-86
2023/07/06 01:01:05;;;;;;;9.70;7.30;;;;;;;20.63;96.97;98129.44;106198;1253;71642;-84
2023/07/06 01:03:34;;;;;;;9.10;6.70;;;;;;;20.60;96.58;98129.51;106443;1253;61199;-86
2023/07/06 01:06:02;;;;;;;7.70;6.90;;;;;;;20.58;96.20;98131.88;106152;1253;61067;-87
2023/07/06 01:08:30;;;;;;;8.20;7.10;;;;;;;20.57;96.01;98130.60;105840;1257;73511;-85
2023/07/06 01:10:59;;;;;;;7.90;7.10;;;;;;;20.55;95.80;98136.09;105884;1255;75251;-87
2023/07/06 01:13:28;;;;;;;7.80;7.00;;;;;;;20.52;95.84;98137.13;105688;1259;72770;-86
2023/07/06 01:16:26;;;;;;;12.00;6.90;;;;;;;20.50;95.61;98140.88;105749;1253;61114;-85
2023/07/06 01:19:20;;;;;;;8.90;8.10;;;;;;;20.46;95.45;98143.48;105763;1254;61169;-86
2023/07/06 01:21:55;;;;;;;8.20;7.50;;;;;;;20.43;95.39;98142.02;107219;1257;73207;-84
2023/07/06 01:24:40;;;;;;;8.40;7.60;;;;;;;20.41;95.40;98141.19;105840;1253;74788;-86
2023/07/06 01:27:32;;;;;;;7.40;6.70;;;;;;;20.39;95.31;98134.52;105892;1254;73058;-85
2023/07/06 01:30:05;;;;;;;7.80;6.90;;;;;;;20.37;95.31;98134.30;105950;1257;61507;-83
2023/07/06 01:32:35;;;;;;;11.30;7.00;;;;;;;20.37;95.32;98134.13;105831;1258;61187;-83
2023/07/06 01:35:25;;;;;;;8.40;7.10;;;;;;;20.37;95.26;98140.30;105781;1260;73865;-83
2023/07/06 01:37:53;;;;;;;8.40;7.20;;;;;;;20.38;95.02;98140.05;105763;1253;73925;-85
2023/07/06 01:40:20;;;;;;;11.40;8.70;;;;;;;20.39;94.89;98139.76;105911;1253;72692;-84
2023/07/06 01:42:47;;;;;;;8.60;7.50;;;;;;;20.39;94.83;98140.39;105540;1253;61550;-85
2023/07/06 01:45:21;;;;;;;7.70;6.40;;;;;;;20.39;94.70;98141.31;105700;1253;61086;-84
2023/07/06 01:47:55;;;;;;;7.90;7.20;;;;;;;20.39;94.69;98144.42;105827;1257;73883;-86
2023/07/06 01:50:31;;;;;;;8.20;7.50;;;;;;;20.38;94.53;98145.65;105578;1253;74233;-85
2023/07/06 01:53:30;;;;;;;7.80;7.00;;;;;;;20.36;94.41;98147.16;105778;1253;71425;-85
2023/07/06 01:56:05;;;;;;;8.50;6.30;;;;;;;20.33;94.33;98149.86;105806;1253;61223;-84
2023/07/06 01:58:45;;;;;;;7.40;6.60;;;;;;;20.30;94.48;98154.49;105655;1253;61046;-86
2023/07/06 02:01:15;;;;;;;8.40;6.70;;;;;;;20.25;94.64;98153.50;105631;1259;74731;-85
2023/07/06 02:03:42;;;;;;;9.20;6.80;;;;;;;20.21;94.82;98146.83;105636;1253;74270;-85
2023/07/06 02:06:10;;;;;;;7.90;6.60;;;;;;;20.18;94.85;98145.03;105481;1254;71980;-84
2023/07/06 02:08:41;;;;;;;7.80;6.80;;;;;;;20.15;94.97;98138.84;106074;1253;61155;-84
2023/07/06 02:11:10;;;;;;;7.10;6.50;;;;;;;20.13;95.13;98138.99;105773;1255;61183;-84
2023/07/06 02:13:38;;;;;;;8.50;7.10;;;;;;;20.11;95.15;98138.02;105704;1257;74824;-84
2023/07/06 02:16:05;;;;;;;7.20;6.60;;;;;;;20.09;95.22;98141.88;105811;1260;74644;-85
2023/07/06 02:18:33;;;;;;;7.20;6.60;;;;;;;20.08;95.23;98139.67;105787;1253;72499;-84
2023/07/06 02:21:01;;;;;;;7.30;6.70;;;;;;;20.07;95.31;98137.05;105750;1256;61633;-84
2023/07/06 02:23:30;;;;;;;7.40;6.30;;;;;;;20.06;95.30;98136.36;105689;1253;63009;-84
2023/07/06 02:25:57;;;;;;;8.30;7.20;;;;;;;20.05;95.32;98135.55;105814;1253;72911;-84
2023/07/06 02:28:27;;;;;;;7.80;7.10;;;;;;;20.04;95.42;98135.65;105732;1253;75725;-84
2023/07/06 02:30:54;;;;;;;7.80;7.00;;;;;;;20.05;95.47;98131.08;105732;1257;74653;-85
2023/07/06 02:33:21;;;;;;;7.10;6.40;;;;;;;20.05;95.66;98129.38;105972;1253;62651;-86
2023/07/06 02:35:49;;;;;;;6.70;6.00;;;;;;;20.06;95.62;98134.41;106020;1253;61139;-86
2023/07/06 02:38:17;;;;;;;8.70;7.40;;;;;;;20.05;95.64;98135.76;105808;1253;73607;-86
2023/07/06 02:40:48;;;;;;;8.00;7.30;;;;;;;20.03;95.43;98135.77;105711;1257;74311;-84
2023/07/06 02:43:16;;;;;;;9.00;6.90;;;;;;;20.02;95.40;98131.02;105875;1253;71433;-85
2023/07/06 02:45:47;;;;;;;8.00;7.10;;;;;;;20.00;95.36;98131.57;105736;1253;61317;-84
2023/07/06 02:48:17;;;;;;;9.30;6.70;;;;;;;19.97;95.55;98133.20;105750;1253;61139;-85
2023/07/06 02:50:49;;;;;;;7.50;6.80;;;;;;;19.96;95.49;98134.44;105720;1253;75237;-85
2023/07/06 02:53:17;;;;;;;8.70;7.10;;;;;;;19.93;95.53;98134.09;105561;1253;74340;-85
2023/07/06 02:55:46;;;;;;;9.00;7.60;;;;;;;19.91;95.64;98133.59;105588;1253;73676;-85
2023/07/06 02:58:13;;;;;;;8.50;7.70;;;;;;;19.90;95.69;98134.63;105868;1253;62145;-85
2023/07/06 03:00:40;;;;;;;7.10;6.40;;;;;;;19.89;95.70;98132.38;105724;1258;60998;-86
2023/07/06 03:03:08;;;;;;;6.90;6.20;;;;;;;19.87;95.69;98127.98;105721;1258;73141;-86
2023/07/06 03:05:36;;;;;;;10.00;7.50;;;;;;;19.85;95.58;98126.59;105827;1253;74645;-85
2023/07/06 03:08:05;;;;;;;7.50;6.70;;;;;;;19.82;95.54;98133.03;105640;1254;73655;-84
2023/07/06 03:10:33;;;;;;;10.00;7.30;;;;;;;19.79;95.75;98133.57;105564;1256;63015;-86
2023/07/06 03:13:02;;;;;;;8.70;6.40;;;;;;;19.77;95.89;98138.38;105729;1258;61180;-85
2023/07/06 03:15:31;;;;;;;7.20;6.30;;;;;;;19.75;96.00;98138.75;105528;1258;74626;-86
2023/07/06 03:17:58;;;;;;;8.80;6.80;;;;;;;19.72;95.87;98140.45;105687;1253;74798;-85
2023/07/06 03:20:25;;;;;;;7.10;6.40;;;;;;;19.71;95.79;98137.44;105575;1258;70501;-84
2023/07/06 03:22:54;;;;;;;8.60;6.80;;;;;;;19.68;95.71;98136.20;105478;1254;61822;-85
2023/07/06 03:25:24;;;;;;;9.00;7.70;;;;;;;19.65;95.82;98139.61;105705;1257;61244;-86
2023/07/06 03:27:52;;;;;;;7.50;6.80;;;;;;;19.63;96.01;98134.13;105656;1258;73831;-85
2023/07/06 03:30:24;;;;;;;8.10;6.80;;;;;;;19.60;96.11;98134.40;105689;1256;74264;-85
2023/07/06 03:32:54;;;;;;;7.10;6.40;;;;;;;19.58;96.05;98132.16;105416;1253;71663;-85
2023/07/06 03:35:23;;;;;;;7.30;6.50;;;;;;;19.55;96.20;98130.27;105859;1253;63141;-86
2023/07/06 03:37:53;;;;;;;6.70;6.00;;;;;;;19.54;96.29;98131.68;105648;1258;61162;-85
2023/07/06 03:40:21;;;;;;;8.40;7.20;;;;;;;19.53;96.22;98128.69;105693;1253;73922;-84
2023/07/06 03:42:48;;;;;;;7.00;6.20;;;;;;;19.54;96.25;98127.70;105728;1257;73236;-85
2023/07/06 03:45:16;;;;;;;8.20;6.70;;;;;;;19.54;96.32;98132.06;105723;1259;71020;-86
2023/07/06 03:47:49;;;;;;;8.70;6.80;;;;;;;19.54;96.16;98124.91;105617;1253;61148;-85
2023/07/06 03:50:18;;;;;;;7.50;6.40;;;;;;;19.56;96.28;98125.21;105649;1255;61257;-85
2023/07/06 03:52:46;;;;;;;8.50;6.10;;;;;;;19.58;96.35;98118.98;105651;1258;73775;-84
2023/07/06 03:55:15;;;;;;;8.90;7.30;;;;;;;19.63;96.28;98119.05;105599;1257;74221;-84
2023/07/06 03:57:45;;;;;;;7.70;6.90;;;;;;;19.67;96.16;98119.45;105593;1258;72741;-84
2023/07/06 04:00:29;;;;;;;9.00;6.90;;;;;;;19.72;95.83;98123.23;105595;1258;61209;-85
2023/07/06 04:02:57;;;;;;;9.20;7.40;;;;;;;19.75;95.45;98121.80;105545;1253;61203;-84
2023/07/06 04:05:39;;;;;;;12.30;7.00;;;;;;;19.77;95.26;98124.39;106204;1253;74795;-84
2023/07/06 04:08:08;;;;;;;8.50;7.60;;;;;;;19.79;94.97;98128.88;106297;1253;73235;-83
2023/07/06 04:10:36;;;;;;;8.10;7.30;;;;;;;19.80;94.78;98127.83;105773;1261;72845;-85
2023/07/06 04:13:04;;;;;;;9.10;6.80;;;;;;;19.82;94.70;98128.50;105713;1261;61163;-85
2023/07/06 04:15:33;;;;;;;10.00;6.50;;;;;;;19.85;94.62;98133.30;109273;1253;59979;-85
2023/07/06 04:18:01;;;;;;;8.80;6.60;;;;;;;19.90;94.67;98136.77;109227;1257;72618;-86
2023/07/06 04:20:29;;;;;;;8.40;7.50;;;;;;;19.95;94.57;98142.96;106108;1253;74118;-84
2023/07/06 04:22:57;;;;;;;9.70;8.80;;;;;;;20.00;94.43;98146.33;106320;1253;72780;-86
2023/07/06 04:25:29;;;;;;;9.20;8.20;;;;;;;20.04;94.36;98154.23;105611;1253;61205;-88
2023/07/06 04:28:02;;;;;;;10.10;7.40;;;;;;;20.08;93.96;98157.97;105639;1253;61213;-85
2023/07/06 04:30:33;;;;;;;8.60;7.70;;;;;;;20.12;93.61;98163.30;105915;1256;72579;-87
2023/07/06 04:33:00;;;;;;;10.30;7.20;;;;;;;20.17;93.26;98170.02;105797;1258;74303;-85
2023/07/06 04:35:27;;;;;;;9.00;7.00;;;;;;;20.21;93.22;98171.38;105932;1253;72662;-85
2023/07/06 04:37:54;;;;;;;9.30;7.90;;;;;;;20.28;93.18;98172.70;105940;1258;61119;-86
2023/07/06 04:40:26;;;;;;;8.70;6.60;;;;;;;20.35;92.83;98179.15;106259;1253;61119;-84
2023/07/06 04:42:54;;;;;;;11.30;7.10;;;;;;;20.43;92.67;98178.41;105855;1258;74570;-85
2023/07/06 04:45:26;;;;;;;9.20;7.30;;;;;;;20.50;92.70;98173.42;105790;1253;74157;-86
2023/07/06 04:47:56;;;;;;;12.80;8.00;;;;;;;20.59;92.67;98175.66;105836;1257;72456;-86
2023/07/06 04:50:24;;;;;;;9.10;7.60;;;;;;;20.68;92.71;98178.52;106072;1253;61065;-86
2023/07/06 04:52:55;;;;;;;8.80;7.00;;;;;;;20.75;92.66;98182.84;105572;1253;61013;-86
2023/07/06 04:55:23;;;;;;;9.10;6.40;;;;;;;20.80;92.38;98183.36;106149;1258;75269;-87
2023/07/06 04:57:56;;;;;;;8.90;7.40;;;;;;;20.83;92.43;98182.21;106869;1252;75442;-88
2023/07/06 05:00:25;;;;;;;8.40;7.30;;;;;;;20.86;92.50;98180.63;108335;1253;73220;-89
2023/07/06 05:02:58;;;;;;;8.20;7.40;;;;;;;20.88;92.67;98181.06;109416;1253;59036;-88
2023/07/06 05:05:27;;;;;;;8.00;7.20;;;;;;;20.91;92.75;98182.14;109520;1252;60574;-88
2023/07/06 05:08:21;;;;;;;8.40;7.40;;;;;;;20.95;92.14;98187.42;109473;1253;72433;-87
2023/07/06 05:21:59;;;;;;;7.80;6.80;;;;;;;21.11;89.81;98194.97;108209;1271;61639;-89
2023/07/06 05:24:26;;;;;;;8.80;7.20;;;;;;;21.14;89.56;98189.91;107994;1276;72846;-88
2023/07/06 05:26:54;;;;;;;7.40;6.60;;;;;;;21.19;89.59;98192.48;107765;1273;73449;-89
2023/07/06 05:29:21;;;;;;;8.80;7.70;;;;;;;21.23;88.80;98192.84;107453;1273;71646;-86
2023/07/06 05:35:56;;;;;;;7.60;6.90;;;;;;;21.31;86.55;98192.51;104840;1283;60466;-89
2023/07/06 05:38:25;;;;;;;6.80;6.10;;;;;;;21.32;86.11;98193.50;104059;1285;74170;-88
2023/07/06 05:40:52;;;;;;;7.30;6.30;;;;;;;21.33;86.22;98193.19;104767;1281;73859;-83
2023/07/06 05:43:20;;;;;;;6.50;5.90;;;;;;;21.34;86.49;98196.35;104082;1279;72406;-84
2023/07/06 05:45:47;;;;;;;7.30;6.30;;;;;;;21.36;86.50;98199.27;104128;1283;61567;-84
2023/07/06 05:48:15;;;;;;;6.30;5.70;;;;;;;21.36;86.18;98206.48;104137;1277;60980;-84
2023/07/06 05:50:42;;;;;;;7.30;6.20;;;;;;;21.37;86.28;98208.77;104323;1282;74794;-86
2023/07/06 05:53:09;;;;;;;6.30;5.60;;;;;;;21.38;86.31;98213.95;103898;1282;74099;-85
2023/07/06 05:55:43;;;;;;;7.20;6.50;;;;;;;21.39;86.01;98210.23;104026;1277;74183;-84
2023/07/06 05:58:16;;;;;;;7.20;5.70;;;;;;;21.41;85.88;98210.14;105749;1281;61208;-84
2023/07/06 06:00:48;;;;;;;6.20;5.70;;;;;;;21.43;85.77;98211.28;104483;1277;61380;-84
2023/07/06 06:03:16;;;;;;;8.90;6.10;;;;;;;21.47;85.64;98211.92;104238;1283;73707;-83
2023/07/06 06:05:43;;;;;;;7.10;6.50;;;;;;;21.51;85.42;98221.10;104578;1277;74315;-84
2023/07/06 06:08:13;;;;;;;7.50;6.00;;;;;;;21.56;84.53;98223.27;104044;1279;72586;-81
2023/07/06 06:11:25;;;;;;;8.10;6.70;;;;;;;21.62;84.40;98224.99;104481;1273;63197;-81
2023/07/06 06:13:55;;;;;;;6.70;6.00;;;;;;;21.69;84.47;98220.30;104476;1282;61405;-84
2023/07/06 06:16:23;;;;;;;7.70;6.70;;;;;;;21.75;84.30;98223.77;104275;1280;73883;-83
2023/07/06 06:18:50;;;;;;;8.20;6.60;;;;;;;21.81;83.91;98217.45;104754;1285;74303;-83
2023/07/06 06:21:17;;;;;;;12.20;6.50;;;;;;;21.87;83.55;98221.15;104000;1280;72954;-84
2023/07/06 06:23:45;;;;;;;6.90;6.00;;;;;;;21.91;82.91;98229.61;104722;1285;61683;-84
2023/07/06 06:29:29;;;;;;;6.50;5.80;;;;;;;22.00;82.87;98234.66;102975;1293;600867;-84
2023/07/06 06:31:56;;;;;;;6.90;6.30;;;;;;;22.01;83.10;98237.74;107183;1267;60583;-87
2023/07/06 06:34:28;;;;;;;7.90;6.60;;;;;;;22.06;82.44;98238.56;105520;1271;61262;-85
2023/07/06 06:36:55;;;;;;;6.30;5.40;;;;;;;22.08;81.84;98240.84;105040;1273;72454;-85
2023/07/06 06:39:22;;;;;;;6.90;6.30;;;;;;;22.11;81.73;98239.04;105205;1267;74351;-84
2023/07/06 06:41:50;;;;;;;7.20;6.50;;;;;;;22.13;82.03;98238.74;108356;1267;71809;-83
2023/07/06 06:44:17;;;;;;;6.70;6.10;;;;;;;22.18;82.83;98242.33;109061;1254;81971;-84
2023/07/06 06:46:45;;;;;;;7.80;7.00;;;;;;;22.24;82.56;98246.96;106131;1254;60995;-85
2023/07/06 06:49:13;;;;;;;7.10;6.50;;;;;;;22.29;81.77;98244.90;106223;1255;71317;-83
2023/07/06 06:51:40;;;;;;;7.40;6.70;;;;;;;22.33;81.52;98245.70;106661;1258;75511;-85
2023/07/06 06:54:10;;;;;;;7.30;6.50;;;;;;;22.37;81.67;98250.87;106953;1255;73388;-87
2023/07/06 06:56:37;;;;;;;7.70;6.20;;;;;;;22.41;81.33;98256.07;108328;1261;58880;-87
2023/07/06 06:59:04;;;;;;;9.50;6.60;;;;;;;22.45;81.32;98257.81;108113;1254;60924;-86
2023/07/06 07:01:32;;;;;;;9.70;6.60;;;;;;;22.48;80.85;98261.98;106477;1254;73100;-83
2023/07/06 07:04:00;;;;;;;6.90;6.20;;;;;;;22.53;80.99;98253.55;105835;1258;74058;-83
2023/07/06 07:06:29;;;;;;;6.80;6.20;;;;;;;22.58;81.65;98255.89;106040;1254;71774;-83
2023/07/06 07:08:57;;;;;;;7.40;6.60;;;;;;;22.64;81.87;98261.27;106475;1254;61149;-83
2023/07/06 07:11:27;;;;;;;6.80;5.80;;;;;;;22.71;80.88;98259.02;105796;1254;61135;-84
2023/07/06 07:13:55;;;;;;;8.80;6.80;;;;;;;22.77;80.24;98260.66;108694;1257;74011;-87
2023/07/06 07:16:28;;;;;;;8.30;6.50;;;;;;;22.84;79.62;98260.21;106958;1254;74630;-89
2023/07/06 07:19:29;;;;;;;;;;;;;;;;;;;;;
2023/07/06 07:22:00;;;;;;;7.40;6.70;;;;;;;22.99;78.96;98256.09;106056;1254;61104;-89
2023/07/06 07:24:35;;;;;;;7.40;5.90;;;;;;;23.07;78.96;98260.76;108290;1254;61065;-88
2023/07/06 07:27:05;;;;;;;6.20;5.60;;;;;;;23.17;78.35;98262.08;107828;1254;72790;-87
2023/07/06 07:29:36;;;;;;;10.30;6.50;;;;;;;23.25;77.81;98263.75;105806;1261;74323;-87
2023/07/06 07:32:04;;;;;;;7.00;5.90;;;;;;;23.34;77.30;98262.95;105826;1255;72602;-88
2023/07/06 07:34:34;;;;;;;7.30;6.50;;;;;;;23.43;76.71;98267.48;106045;1254;61168;-87
2023/07/06 07:37:01;;;;;;;7.90;5.90;;;;;;;23.51;75.66;98272.23;105793;1260;61421;-86
2023/07/06 07:39:41;;;;;;;7.80;6.00;;;;;;;23.58;74.86;98274.81;105727;1254;74152;-88
2023/07/06 07:42:42;;;;;;;;;;;;;;;;;;;;;
2023/07/06 07:45:32;;;;;;;5.70;5.20;;;;;;;23.72;73.31;98275.23;105923;1258;73614;-88
2023/07/06 07:48:38;;;;;;;;;;;;;;;;;;;;;
2023/07/06 07:51:13;;;;;;;5.40;4.90;;;;;;;23.84;71.24;98276.02;109126;1254;59904;-84
2023/07/06 07:53:40;;;;;;;7.90;5.30;;;;;;;23.85;70.94;98275.69;107350;1254;72961;-85
2023/07/06 07:56:13;;;;;;;5.80;5.30;;;;;;;23.84;70.46;98274.84;106795;1255;74511;-88
2023/07/06 07:58:40;;;;;;;6.80;5.10;;;;;;;23.84;70.63;98275.80;106698;1255;73638;-90
2023/07/06 08:01:10;;;;;;;5.80;5.20;;;;;;;23.82;69.58;98277.50;106186;1257;61144;-88
2023/07/06 08:03:37;;;;;;;6.20;5.60;;;;;;;23.80;69.64;98269.42;106018;1258;61062;-87
2023/07/06 08:06:39;;;;;;;5.20;4.70;;;;;;;23.80;70.83;98270.77;105874;1257;72344;-88
2023/07/06 08:09:08;;;;;;;6.40;5.60;;;;;;;23.82;71.37;98274.58;105644;1254;73340;-87
2023/07/06 08:11:46;;;;;;;6.10;5.50;;;;;;;23.86;70.79;98273.42;105904;1256;73554;-86
2023/07/06 08:14:37;;;;;;;7.00;5.60;;;;;;;23.90;70.00;98272.42;105911;1254;61112;-90
2023/07/06 08:17:05;;;;;;;7.20;6.60;;;;;;;23.96;70.53;98280.66;105830;1255;61155;-88
2023/07/06 08:19:33;;;;;;;7.40;6.70;;;;;;;24.02;70.41;98283.89;106245;1254;73193;-89
2023/07/06 08:22:46;;;;;;;7.10;6.40;;;;;;;24.10;69.19;98285.75;105733;1255;74102;-88
2023/07/06 08:25:14;;;;;;;8.90;7.50;;;;;;;24.15;69.13;98289.00;105653;1255;72012;-86
2023/07/06 08:27:41;;;;;;;7.50;6.80;;;;;;;24.20;69.22;98290.56;106123;1258;61258;-87
2023/07/06 08:30:33;;;;;;;7.10;6.40;;;;;;;24.26;68.69;98288.80;106963;1254;61200;31
2023/07/06 08:33:00;;;;;;;8.50;6.50;;;;;;;24.32;68.90;98285.35;105620;1261;72085;-85
2023/07/06 08:35:28;;;;;;;7.90;6.60;;;;;;;24.38;68.34;98287.05;106797;1261;74682;-85
2023/07/06 08:38:03;;;;;;;7.70;7.00;;;;;;;24.44;67.86;98283.89;106545;1261;71234;-86
2023/07/06 08:40:33;;;;;;;7.70;7.00;;;;;;;24.50;67.38;98282.64;105711;1262;61186;-86
2023/07/06 08:43:01;;;;;;;8.10;7.30;;;;;;;24.59;67.12;98284.71;105817;1267;61125;-88
2023/07/06 08:45:52;;;;;;;7.80;7.20;;;;;;;24.69;66.87;98285.47;105330;1261;73406;-87
2023/07/06 08:48:22;;;;;;;8.80;8.10;;;;;;;24.79;66.05;98279.97;105358;1265;73980;-85
2023/07/06 08:50:58;;;;;;;8.80;8.00;;;;;;;24.87;65.57;98278.25;105447;1261;71297;-84
2023/07/06 08:53:37;;;;;;;9.30;8.40;;;;;;;24.96;65.25;98278.05;105205;1259;61223;-83
2023/07/06 08:56:08;;;;;;;8.30;7.60;;;;;;;25.04;65.62;98275.94;105174;1264;61180;-84
2023/07/06 08:58:46;;;;;;;7.80;7.10;;;;;;;25.11;65.53;98279.33;105303;1259;71571;-86
2023/07/06 09:01:20;;;;;;;7.00;6.40;;;;;;;25.18;65.74;98277.50;105667;1265;74337;-88
2023/07/06 09:04:15;;;;;;;10.40;7.00;;;;;;;25.28;65.69;98277.26;105300;1265;74269;-85
2023/07/06 09:06:58;;;;;;;7.00;6.40;;;;;;;25.32;64.85;98278.48;105350;1262;61776;-84
2023/07/06 09:09:28;;;;;;;8.60;5.90;;;;;;;25.32;64.25;98279.96;105105;1263;61160;-87
2023/07/06 09:11:56;;;;;;;7.70;5.80;;;;;;;25.31;64.63;98282.84;105868;1261;71860;-85
2023/07/06 09:14:28;;;;;;;7.10;6.50;;;;;;;25.32;64.18;98282.25;105875;1266;73514;-84
2023/07/06 09:16:58;;;;;;;7.60;6.80;;;;;;;25.34;64.01;98279.34;107219;1261;71359;-84
2023/07/06 09:19:26;;;;;;;7.20;6.50;;;;;;;25.38;63.87;98273.86;106926;1261;61225;-84
2023/07/06 09:21:56;;;;;;;9.00;6.50;;;;;;;25.44;63.83;98276.29;105502;1262;61203;-86
2023/07/06 09:24:28;;;;;;;6.10;5.60;;;;;;;25.53;64.01;98281.55;105358;1265;72316;-84
2023/07/06 09:26:58;;;;;;;6.50;5.90;;;;;;;25.63;63.81;98287.02;105432;1261;75481;-85
2023/07/06 09:29:33;;;;;;;8.90;6.80;;;;;;;25.72;62.81;98285.23;105559;1259;72705;-85
2023/07/06 09:32:32;;;;;;;7.30;6.60;;;;;;;25.83;62.42;98290.73;105534;1262;61147;-86
2023/07/06 09:35:08;;;;;;;7.00;6.30;;;;;;;25.95;62.01;98288.56;104995;1268;61106;-87
2023/07/06 09:37:53;;;;;;;7.70;6.00;;;;;;;26.04;61.92;98286.46;104806;1273;73691;-87
2023/07/06 09:40:27;;;;;;;7.10;6.40;;;;;;;26.12;61.91;98283.74;104744;1268;73304;-85
2023/07/06 09:42:57;;;;;;;9.60;6.20;;;;;;;26.18;62.48;98285.84;104967;1273;72858;-86
2023/07/06 09:45:28;;;;;;;6.80;5.80;;;;;;;26.22;61.51;98286.91;105459;1271;61141;-87
2023/07/06 09:48:30;;;;;;;6.70;6.10;;;;;;;26.26;60.69;98288.02;105282;1268;61124;-86
2023/07/06 09:51:21;;;;;;;6.20;5.60;;;;;;;26.27;60.41;98291.15;104500;1279;74352;-87
2023/07/06 09:54:23;;;;;;;6.00;5.40;;;;;;;26.29;60.81;98295.29;104927;1277;74320;-85
2023/07/06 09:56:56;;;;;;;5.80;5.30;;;;;;;26.31;60.49;98291.32;104610;1276;72494;-87
2023/07/06 09:59:26;;;;;;;6.50;5.70;;;;;;;26.36;60.64;98289.27;104805;1276;61058;-86
2023/07/06 10:01:58;;;;;;;5.90;5.40;;;;;;;26.43;60.76;98283.96;104398;1274;61281;-87
2023/07/06 10:04:59;;;;;;;7.20;5.50;;;;;;;26.52;59.92;98277.89;104477;1278;72232;-86
2023/07/06 10:07:34;;;;;;;6.40;5.60;;;;;;;26.60;59.94;98280.98;104369;1274;74333;-84
2023/07/06 10:10:14;;;;;;;6.30;5.70;;;;;;;26.62;59.67;98284.62;104351;1277;72863;-86
2023/07/06 10:12:44;;;;;;;6.10;5.60;;;;;;;26.66;59.43;98284.11;105071;1275;61274;-85
2023/07/06 10:15:37;;;;;;;8.60;7.50;;;;;;;26.67;59.47;98282.66;105191;1270;61277;-87
2023/07/06 10:18:14;;;;;;;7.10;6.50;;;;;;;26.73;59.03;98281.34;105263;1279;73077;-87
2023/07/06 10:20:54;;;;;;;7.70;7.00;;;;;;;26.79;59.41;98277.69;104039;1282;73417;-88
2023/07/06 10:23:56;;;;;;;7.80;7.10;;;;;;;26.91;59.14;98274.80;104694;1279;73354;-87
2023/07/06 10:26:33;;;;;;;6.50;5.90;;;;;;;27.06;58.24;98267.85;104458;1275;61250;-87
2023/07/06 10:32:55;;;;;;;9.10;8.10;;;;;;;27.46;57.58;98253.06;102874;1291;601211;-87
2023/07/06 10:35:32;;;;;;;7.20;6.50;;;;;;;27.59;56.87;98255.75;105812;1262;61618;-86
2023/07/06 10:37:59;;;;;;;10.20;7.40;;;;;;;27.75;55.73;98254.52;105534;1256;61171;-87
2023/07/06 10:40:38;;;;;;;7.80;7.00;;;;;;;27.84;55.96;98256.56;106331;1256;71375;-85
2023/07/06 10:43:14;;;;;;;8.10;7.30;;;;;;;27.94;55.61;98251.72;106094;1257;73894;-83
2023/07/06 10:45:49;;;;;;;7.80;7.00;;;;;;;28.08;55.21;98250.10;105654;1256;121254;-86
2023/07/06 10:48:34;;;;;;;6.50;5.80;;;;;;;28.20;54.63;98252.52;106679;1255;60951;-86
2023/07/06 10:51:13;;;;;;;6.00;4.90;;;;;;;28.37;53.06;98251.02;107023;1253;61164;-86
2023/07/06 10:53:42;;;;;;;7.40;6.40;;;;;;;28.50;52.38;98248.80;105878;1256;72410;-85
2023/07/06 10:56:26;;;;;;;6.30;5.60;;;;;;;28.65;51.39;98248.95;106945;1258;75463;-83
2023/07/06 10:58:54;;;;;;;6.40;5.00;;;;;;;28.81;52.00;98243.17;106729;1255;72127;-86
2023/07/06 11:01:40;;;;;;;4.90;4.40;;;;;;;28.98;51.98;98237.85;108519;1256;61057;-87
2023/07/06 11:04:41;;;;;;;7.00;5.00;;;;;;;29.20;52.01;98233.84;107481;1257;61175;-89
2023/07/06 11:07:09;;;;;;;5.10;4.60;;;;;;;29.45;51.97;98226.44;106473;1261;74038;-86
2023/07/06 11:10:08;;;;;;;11.10;5.00;;;;;;;29.60;50.83;98226.36;107051;1255;73132;-86
2023/07/06 11:12:53;;;;;;;5.80;5.40;;;;;;;29.80;50.37;98226.83;107868;1255;73697;-87
2023/07/06 11:15:29;;;;;;;6.50;5.10;;;;;;;29.87;49.80;98229.84;107537;1256;61143;-88
2023/07/06 11:17:57;;;;;;;6.20;4.50;;;;;;;29.94;49.93;98234.50;105821;1257;61075;-87
2023/07/06 11:20:31;;;;;;;4.50;3.80;;;;;;;29.99;49.83;98239.45;105859;1259;74209;-87
2023/07/06 11:23:11;;;;;;;4.60;4.20;;;;;;;30.06;48.91;98243.23;105704;1255;73503;-89
2023/07/06 11:25:45;;;;;;;4.30;4.00;;;;;;;30.09;48.40;98239.73;105327;1261;73478;-87
2023/07/06 11:28:12;;;;;;;4.20;3.80;;;;;;;30.16;48.58;98239.02;105516;1264;61087;-89
2023/07/06 11:30:52;;;;;;;4.60;4.20;;;;;;;30.29;47.70;98240.06;105218;1269;62386;-87
2023/07/06 11:33:54;;;;;;;4.50;4.10;;;;;;;30.36;46.32;98243.61;105296;1261;72068;-85
2023/07/06 11:36:28;;;;;;;6.80;5.00;;;;;;;30.36;47.04;98244.67;105191;1267;73205;-86
2023/07/06 11:39:09;;;;;;;4.70;4.00;;;;;;;30.32;47.54;98238.31;105373;1266;71485;-85
2023/07/06 11:41:53;;;;;;;4.40;4.00;;;;;;;30.23;46.38;98242.14;105530;1261;61175;-86
2023/07/06 11:44:46;;;;;;;6.00;4.00;;;;;;;30.19;46.46;98235.38;105447;1256;61077;-87
2023/07/06 11:47:37;;;;;;;5.40;4.40;;;;;;;30.19;46.22;98239.30;105842;1260;73668;-85
2023/07/06 11:50:09;;;;;;;4.00;3.70;;;;;;;30.21;46.97;98241.18;108364;1255;74043;-84
2023/07/06 11:52:45;;;;;;;4.70;4.30;;;;;;;30.28;47.66;98242.92;109034;1255;71715;-85
2023/07/06 11:55:29;;;;;;;4.80;4.20;;;;;;;30.43;47.26;98238.48;107075;1255;61237;-85
2023/07/06 11:58:18;;;;;;;3.90;3.60;;;;;;;30.50;47.12;98238.84;106434;1260;61163;-86
2023/07/06 12:01:45;;;;;;;3.90;3.20;;;;;;;30.65;46.50;98240.04;106183;1260;71515;-86
2023/07/06 12:04:18;;;;;;;4.20;3.70;;;;;;;30.83;45.33;98239.63;106127;1256;74262;-88
2023/07/06 12:06:48;;;;;;;4.40;4.00;;;;;;;30.98;44.67;98231.60;106171;1260;71351;-86
2023/07/06 12:09:25;;;;;;;5.40;4.40;;;;;;;31.16;44.86;98222.41;105953;1258;61255;-86
2023/07/06 12:12:06;;;;;;;4.20;3.80;;;;;;;31.39;44.02;98217.24;105687;1255;61069;-86
2023/07/06 12:14:35;;;;;;;9.20;3.20;;;;;;;31.60;43.57;98218.29;105804;1264;73312;-87
2023/07/06 12:17:05;;;;;;;4.00;3.50;;;;;;;31.77;43.06;98215.85;105700;1259;75309;-85
2023/07/06 12:19:41;;;;;;;6.80;3.30;;;;;;;31.81;43.11;98217.48;106246;1260;72508;-87
2023/07/06 12:22:18;;;;;;;4.40;3.00;;;;;;;31.89;42.06;98218.78;106588;1261;61160;-87
2023/07/06 12:25:37;;;;;;;3.40;2.90;;;;;;;31.92;41.75;98215.07;106989;1260;60979;-89